Terminal Aerodrome Forecast
Issued by NWS

Home | Current Version | Previous Version | Text Only | Print | Product List | Glossary On
Versions: 1 2 3 4 5 6 7 8 9 10 11 12 13 14 15 16
000
FTUS45 KTFX 051700
TAFGTF
TAF
KGTF 051735Z 0518/0618 22018G25KT P6SM BKN120
     FM060400 23012KT P6SM BKN120
     FM061000 23015G25KT P6SM BKN100
     FM061600 23015KT P6SM SCT120=

USA.gov is the U.S. government's official web portal to all federal, state and local government web resources and services.